sensor_id;sensor_type;location;lat;lon;timestamp;pressure;altitude;pressure_sealevel;temperature;humidity
74794;BME280;63320;50.768;6.724;2022-12-29T00:01:06;99073.31;;;10.40;78.55
74794;BME280;63320;50.768;6.724;2022-12-29T00:03:32;99064.34;;;10.30;79.13
74794;BME280;63320;50.768;6.724;2022-12-29T00:05:57;99059.63;;;10.35;79.17
74794;BME280;63320;50.768;6.724;2022-12-29T00:08:22;99061.25;;;10.50;78.14
74794;BME280;63320;50.768;6.724;2022-12-29T00:10:48;99060.69;;;10.45;78.47
74794;BME280;63320;50.768;6.724;2022-12-29T00:13:13;99061.31;;;10.49;77.89
74794;BME280;63320;50.768;6.724;2022-12-29T00:15:40;99058.16;;;10.44;78.17
74794;BME280;63320;50.768;6.724;2022-12-29T00:18:06;99065.44;;;10.53;77.70
74794;BME280;63320;50.768;6.724;2022-12-29T00:20:33;99053.78;;;10.57;77.49
74794;BME280;63320;50.768;6.724;2022-12-29T00:22:58;99054.38;;;10.48;77.84
74794;BME280;63320;50.768;6.724;2022-12-29T00:25:24;99049.06;;;10.49;77.80
74794;BME280;63320;50.768;6.724;2022-12-29T00:27:49;99036.94;;;10.47;77.65
74794;BME280;63320;50.768;6.724;2022-12-29T00:30:15;99045.88;;;10.44;77.88
74794;BME280;63320;50.768;6.724;2022-12-29T00:32:42;99045.66;;;10.47;77.60
74794;BME280;63320;50.768;6.724;2022-12-29T00:35:09;99036.00;;;10.48;77.64
74794;BME280;63320;50.768;6.724;2022-12-29T00:37:35;99049.59;;;10.54;77.08
74794;BME280;63320;50.768;6.724;2022-12-29T00:40:01;99034.34;;;10.59;76.67
74794;BME280;63320;50.768;6.724;2022-12-29T00:42:26;99052.09;;;10.69;76.46
74794;BME280;63320;50.768;6.724;2022-12-29T00:44:51;99046.75;;;10.70;76.27
74794;BME280;63320;50.768;6.724;2022-12-29T00:47:17;99047.78;;;10.55;76.88
74794;BME280;63320;50.768;6.724;2022-12-29T00:49:43;99054.19;;;10.63;76.66
74794;BME280;63320;50.768;6.724;2022-12-29T00:52:11;99047.78;;;10.68;76.60
74794;BME280;63320;50.768;6.724;2022-12-29T00:54:38;99040.44;;;10.60;76.94
74794;BME280;63320;50.768;6.724;2022-12-29T00:57:05;99042.84;;;10.63;76.86
74794;BME280;63320;50.768;6.724;2022-12-29T00:59:31;99047.91;;;10.66;76.74
74794;BME280;63320;50.768;6.724;2022-12-29T01:01:56;99037.41;;;10.66;76.47
74794;BME280;63320;50.768;6.724;2022-12-29T01:04:24;99022.69;;;10.76;75.49
74794;BME280;63320;50.768;6.724;2022-12-29T01:06:51;99019.28;;;10.74;75.03
74794;BME280;63320;50.768;6.724;2022-12-29T01:09:17;99034.88;;;10.77;74.52
74794;BME280;63320;50.768;6.724;2022-12-29T01:11:43;99043.72;;;10.76;74.37
74794;BME280;63320;50.768;6.724;2022-12-29T01:14:09;99046.25;;;10.91;73.24
74794;BME280;63320;50.768;6.724;2022-12-29T01:16:34;99046.03;;;10.81;73.28
74794;BME280;63320;50.768;6.724;2022-12-29T01:18:59;99048.56;;;10.82;72.96
74794;BME280;63320;50.768;6.724;2022-12-29T01:21:25;99055.81;;;10.92;71.73
74794;BME280;63320;50.768;6.724;2022-12-29T01:23:52;99049.91;;;11.13;69.91
74794;BME280;63320;50.768;6.724;2022-12-29T01:26:17;99054.97;;;11.17;69.32
74794;BME280;63320;50.768;6.724;2022-12-29T01:28:44;99054.13;;;11.41;67.98
74794;BME280;63320;50.768;6.724;2022-12-29T01:31:10;99054.13;;;11.16;68.96
74794;BME280;63320;50.768;6.724;2022-12-29T01:33:36;99061.19;;;11.15;69.28
74794;BME280;63320;50.768;6.724;2022-12-29T01:36:02;99051.41;;;11.30;68.44
74794;BME280;63320;50.768;6.724;2022-12-29T01:38:28;99033.28;;;11.13;68.88
74794;BME280;63320;50.768;6.724;2022-12-29T01:40:55;99046.69;;;11.10;69.10
74794;BME280;63320;50.768;6.724;2022-12-29T01:43:20;99041.59;;;11.32;67.83
74794;BME280;63320;50.768;6.724;2022-12-29T01:45:48;99043.38;;;11.19;68.82
74794;BME280;63320;50.768;6.724;2022-12-29T01:48:16;99039.09;;;11.05;69.17
74794;BME280;63320;50.768;6.724;2022-12-29T01:50:45;99047.50;;;11.23;68.18
74794;BME280;63320;50.768;6.724;2022-12-29T01:53:16;99027.94;;;11.02;69.30
74794;BME280;63320;50.768;6.724;2022-12-29T01:55:44;99026.88;;;10.92;69.67
74794;BME280;63320;50.768;6.724;2022-12-29T01:58:14;99004.47;;;10.99;69.08
74794;BME280;63320;50.768;6.724;2022-12-29T02:00:41;99000.56;;;10.79;69.80
74794;BME280;63320;50.768;6.724;2022-12-29T02:03:07;98996.91;;;10.81;69.56
74794;BME280;63320;50.768;6.724;2022-12-29T02:05:37;99010.91;;;10.82;69.47
74794;BME280;63320;50.768;6.724;2022-12-29T02:08:04;99012.16;;;10.76;69.71
74794;BME280;63320;50.768;6.724;2022-12-29T02:10:32;99000.78;;;10.88;69.49
74794;BME280;63320;50.768;6.724;2022-12-29T02:12:59;98998.06;;;10.65;70.65
74794;BME280;63320;50.768;6.724;2022-12-29T02:15:34;99005.31;;;10.74;70.29
74794;BME280;63320;50.768;6.724;2022-12-29T02:18:18;99004.06;;;10.67;70.60
74794;BME280;63320;50.768;6.724;2022-12-29T02:24:17;98990.16;;;10.52;71.93
74794;BME280;63320;50.768;6.724;2022-12-29T02:26:59;98989.28;;;10.38;73.13
74794;BME280;63320;50.768;6.724;2022-12-29T02:29:58;98981.53;;;10.37;73.97
74794;BME280;63320;50.768;6.724;2022-12-29T02:32:35;98986.06;;;10.35;74.46
74794;BME280;63320;50.768;6.724;2022-12-29T02:35:09;98984.34;;;10.34;75.10
74794;BME280;63320;50.768;6.724;2022-12-29T02:37:41;98978.56;;;10.29;75.70
74794;BME280;63320;50.768;6.724;2022-12-29T02:40:16;98981.53;;;10.24;76.15
74794;BME280;63320;50.768;6.724;2022-12-29T02:42:49;98977.72;;;10.28;76.40
74794;BME280;63320;50.768;6.724;2022-12-29T02:45:20;98976.31;;;10.23;76.47
74794;BME280;63320;50.768;6.724;2022-12-29T02:47:51;98963.69;;;10.15;77.07
74794;BME280;63320;50.768;6.724;2022-12-29T02:50:25;98968.13;;;10.15;77.36
74794;BME280;63320;50.768;6.724;2022-12-29T02:52:54;98976.19;;;10.11;77.58
74794;BME280;63320;50.768;6.724;2022-12-29T02:55:22;98960.00;;;10.18;77.49
74794;BME280;63320;50.768;6.724;2022-12-29T02:57:47;98959.19;;;10.17;77.69
74794;BME280;63320;50.768;6.724;2022-12-29T03:00:15;98964.31;;;10.19;77.91
74794;BME280;63320;50.768;6.724;2022-12-29T03:02:55;98964.00;;;10.23;77.60
74794;BME280;63320;50.768;6.724;2022-12-29T03:08:27;98966.47;;;10.26;77.76
74794;BME280;63320;50.768;6.724;2022-12-29T03:10:59;98957.88;;;10.24;77.98
74794;BME280;63320;50.768;6.724;2022-12-29T03:13:28;98956.81;;;10.27;78.04
74794;BME280;63320;50.768;6.724;2022-12-29T03:16:01;98940.94;;;10.28;78.18
74794;BME280;63320;50.768;6.724;2022-12-29T03:18:37;98944.63;;;10.38;77.79
74794;BME280;63320;50.768;6.724;2022-12-29T03:21:10;98962.63;;;10.57;76.75
74794;BME280;63320;50.768;6.724;2022-12-29T03:23:37;98946.22;;;10.54;76.64
74794;BME280;63320;50.768;6.724;2022-12-29T03:26:08;98933.19;;;10.52;76.68
74794;BME280;63320;50.768;6.724;2022-12-29T03:28:38;98937.41;;;10.55;76.10
74794;BME280;63320;50.768;6.724;2022-12-29T03:31:05;98946.75;;;10.72;74.82
74794;BME280;63320;50.768;6.724;2022-12-29T03:33:33;98943.81;;;10.76;74.43
74794;BME280;63320;50.768;6.724;2022-12-29T03:36:03;98953.88;;;10.82;73.71
74794;BME280;63320;50.768;6.724;2022-12-29T03:38:33;98964.00;;;10.76;74.30
74794;BME280;63320;50.768;6.724;2022-12-29T03:41:03;98953.78;;;10.84;73.92
74794;BME280;63320;50.768;6.724;2022-12-29T03:43:29;98938.94;;;10.83;73.92
74794;BME280;63320;50.768;6.724;2022-12-29T03:45:55;98919.38;;;10.74;74.18
74794;BME280;63320;50.768;6.724;2022-12-29T03:48:20;98912.38;;;10.75;74.21
74794;BME280;63320;50.768;6.724;2022-12-29T03:50:47;98917.31;;;10.79;73.86
74794;BME280;63320;50.768;6.724;2022-12-29T03:53:12;98919.59;;;10.84;73.52
74794;BME280;63320;50.768;6.724;2022-12-29T03:55:38;98907.94;;;10.62;74.70
74794;BME280;63320;50.768;6.724;2022-12-29T03:58:03;98915.91;;;10.74;74.45
74794;BME280;63320;50.768;6.724;2022-12-29T04:00:29;98920.44;;;10.59;75.30
74794;BME280;63320;50.768;6.724;2022-12-29T04:02:54;98904.06;;;10.55;75.55
74794;BME280;63320;50.768;6.724;2022-12-29T04:05:19;98905.34;;;10.50;75.73
74794;BME280;63320;50.768;6.724;2022-12-29T04:07:46;98910.78;;;10.47;75.95
74794;BME280;63320;50.768;6.724;2022-12-29T04:10:11;98905.72;;;10.44;76.13
74794;BME280;63320;50.768;6.724;2022-12-29T04:12:36;98898.59;;;10.33;76.57
74794;BME280;63320;50.768;6.724;2022-12-29T04:15:02;98893.97;;;10.36;76.19
74794;BME280;63320;50.768;6.724;2022-12-29T04:17:28;98878.41;;;10.33;76.01
74794;BME280;63320;50.768;6.724;2022-12-29T04:19:53;98881.78;;;10.35;75.56
74794;BME280;63320;50.768;6.724;2022-12-29T04:22:18;98857.91;;;10.38;74.99
74794;BME280;63320;50.768;6.724;2022-12-29T04:24:45;98866.22;;;10.45;74.44
74794;BME280;63320;50.768;6.724;2022-12-29T04:27:10;98865.06;;;10.49;73.84
74794;BME280;63320;50.768;6.724;2022-12-29T04:29:36;98865.16;;;10.60;72.77
74794;BME280;63320;50.768;6.724;2022-12-29T04:32:01;98870.31;;;10.62;72.43
74794;BME280;63320;50.768;6.724;2022-12-29T04:34:26;98870.19;;;10.63;72.39
74794;BME280;63320;50.768;6.724;2022-12-29T04:36:51;98885.88;;;10.52;72.75
74794;BME280;63320;50.768;6.724;2022-12-29T04:39:17;98888.06;;;10.71;71.48
74794;BME280;63320;50.768;6.724;2022-12-29T04:41:43;98890.78;;;10.95;70.36
74794;BME280;63320;50.768;6.724;2022-12-29T04:44:09;98901.41;;;10.81;70.77
74794;BME280;63320;50.768;6.724;2022-12-29T04:46:34;98924.28;;;11.04;69.11
74794;BME280;63320;50.768;6.724;2022-12-29T04:48:59;98909.25;;;10.94;69.41
74794;BME280;63320;50.768;6.724;2022-12-29T04:51:25;98934.53;;;10.83;69.68
74794;BME280;63320;50.768;6.724;2022-12-29T04:53:50;98911.69;;;10.97;69.36
74794;BME280;63320;50.768;6.724;2022-12-29T04:56:15;98920.22;;;10.87;69.65
74794;BME280;63320;50.768;6.724;2022-12-29T04:58:42;98902.25;;;10.81;69.80
74794;BME280;63320;50.768;6.724;2022-12-29T05:01:07;98903.59;;;10.87;69.63
74794;BME280;63320;50.768;6.724;2022-12-29T05:03:33;98915.41;;;10.81;69.76
74794;BME280;63320;50.768;6.724;2022-12-29T05:05:58;98904.25;;;10.91;69.35
74794;BME280;63320;50.768;6.724;2022-12-29T05:08:26;98901.66;;;10.65;70.32
74794;BME280;63320;50.768;6.724;2022-12-29T05:10:52;98903.84;;;10.71;70.01
74794;BME280;63320;50.768;6.724;2022-12-29T05:13:17;98904.28;;;10.65;70.17
74794;BME280;63320;50.768;6.724;2022-12-29T05:15:47;98909.31;;;10.68;70.30
74794;BME280;63320;50.768;6.724;2022-12-29T05:18:12;98925.72;;;10.59;70.64
74794;BME280;63320;50.768;6.724;2022-12-29T05:20:38;98916.25;;;10.69;70.05
74794;BME280;63320;50.768;6.724;2022-12-29T05:23:03;98931.19;;;10.56;70.84
74794;BME280;63320;50.768;6.724;2022-12-29T05:25:28;98926.03;;;10.67;70.60
74794;BME280;63320;50.768;6.724;2022-12-29T05:27:54;98934.22;;;10.62;70.82
74794;BME280;63320;50.768;6.724;2022-12-29T05:30:19;98941.81;;;10.67;70.75
74794;BME280;63320;50.768;6.724;2022-12-29T05:32:46;98930.13;;;10.58;71.14
74794;BME280;63320;50.768;6.724;2022-12-29T05:35:11;98935.91;;;10.63;70.82
74794;BME280;63320;50.768;6.724;2022-12-29T05:37:36;98920.44;;;10.59;71.18
74794;BME280;63320;50.768;6.724;2022-12-29T05:40:02;98929.59;;;10.79;69.75
74794;BME280;63320;50.768;6.724;2022-12-29T05:42:28;98938.44;;;10.78;69.59
74794;BME280;63320;50.768;6.724;2022-12-29T05:44:53;98938.44;;;10.65;69.89
74794;BME280;63320;50.768;6.724;2022-12-29T05:47:18;98950.09;;;10.74;69.42
74794;BME280;63320;50.768;6.724;2022-12-29T05:49:45;98948.00;;;10.79;69.25
74794;BME280;63320;50.768;6.724;2022-12-29T05:52:10;98954.13;;;10.79;69.35
74794;BME280;63320;50.768;6.724;2022-12-29T05:54:36;98955.56;;;10.83;69.32
74794;BME280;63320;50.768;6.724;2022-12-29T05:57:01;98975.56;;;10.73;70.45
74794;BME280;63320;50.768;6.724;2022-12-29T05:59:26;98980.41;;;10.79;70.83
74794;BME280;63320;50.768;6.724;2022-12-29T06:01:52;98953.69;;;10.73;71.58
74794;BME280;63320;50.768;6.724;2022-12-29T06:04:17;98961.47;;;10.61;72.53
74794;BME280;63320;50.768;6.724;2022-12-29T06:06:44;98960.31;;;10.66;72.44
74794;BME280;63320;50.768;6.724;2022-12-29T06:09:10;98955.81;;;10.55;72.88
74794;BME280;63320;50.768;6.724;2022-12-29T06:11:35;98974.41;;;10.52;73.38
74794;BME280;63320;50.768;6.724;2022-12-29T06:14:00;98967.22;;;10.54;73.10
74794;BME280;63320;50.768;6.724;2022-12-29T06:16:26;98961.97;;;10.54;72.82
74794;BME280;63320;50.768;6.724;2022-12-29T06:18:51;98970.00;;;10.65;71.87
74794;BME280;63320;50.768;6.724;2022-12-29T06:21:16;98961.38;;;10.50;72.65
74794;BME280;63320;50.768;6.724;2022-12-29T06:23:43;98947.91;;;10.55;72.52
74794;BME280;63320;50.768;6.724;2022-12-29T06:26:08;98949.50;;;10.45;72.65
74794;BME280;63320;50.768;6.724;2022-12-29T06:28:34;98948.44;;;10.47;72.35
74794;BME280;63320;50.768;6.724;2022-12-29T06:30:59;98978.94;;;10.50;71.59
74794;BME280;63320;50.768;6.724;2022-12-29T06:33:24;98965.78;;;10.50;70.88
74794;BME280;63320;50.768;6.724;2022-12-29T06:35:49;98993.84;;;10.62;69.54
74794;BME280;63320;50.768;6.724;2022-12-29T06:38:15;99001.13;;;10.71;68.24
74794;BME280;63320;50.768;6.724;2022-12-29T06:40:42;98964.00;;;10.76;67.72
74794;BME280;63320;50.768;6.724;2022-12-29T06:43:08;98982.06;;;10.68;68.30
74794;BME280;63320;50.768;6.724;2022-12-29T06:45:33;98986.06;;;10.60;69.31
74794;BME280;63320;50.768;6.724;2022-12-29T06:47:58;98972.59;;;10.52;69.76
74794;BME280;63320;50.768;6.724;2022-12-29T06:50:24;98983.84;;;10.42;70.54
74794;BME280;63320;50.768;6.724;2022-12-29T06:52:49;98981.25;;;10.54;69.17
74794;BME280;63320;50.768;6.724;2022-12-29T06:55:15;98980.38;;;10.54;68.17
74794;BME280;63320;50.768;6.724;2022-12-29T06:57:41;98965.47;;;10.54;67.90
74794;BME280;63320;50.768;6.724;2022-12-29T07:00:08;98990.34;;;10.49;68.17
74794;BME280;63320;50.768;6.724;2022-12-29T07:02:33;98980.38;;;10.54;67.98
74794;BME280;63320;50.768;6.724;2022-12-29T07:04:59;98989.81;;;10.44;68.26
74794;BME280;63320;50.768;6.724;2022-12-29T07:07:24;98997.03;;;10.54;67.54
74794;BME280;63320;50.768;6.724;2022-12-29T07:09:49;98989.28;;;10.38;68.38
74794;BME280;63320;50.768;6.724;2022-12-29T07:12:15;98998.53;;;10.31;68.84
74794;BME280;63320;50.768;6.724;2022-12-29T07:14:41;99006.53;;;10.43;67.95
74794;BME280;63320;50.768;6.724;2022-12-29T07:17:07;99000.56;;;10.41;67.75
74794;BME280;63320;50.768;6.724;2022-12-29T07:19:32;99018.41;;;10.35;68.26
74794;BME280;63320;50.768;6.724;2022-12-29T07:21:58;99026.63;;;10.44;67.71
74794;BME280;63320;50.768;6.724;2022-12-29T07:24:23;99064.16;;;10.46;67.88
74794;BME280;63320;50.768;6.724;2022-12-29T07:26:49;99041.13;;;10.36;68.48
74794;BME280;63320;50.768;6.724;2022-12-29T07:29:14;99049.00;;;10.36;68.49
74794;BME280;63320;50.768;6.724;2022-12-29T07:31:41;99045.78;;;10.46;68.03
74794;BME280;63320;50.768;6.724;2022-12-29T07:34:07;99058.56;;;10.37;68.48
74794;BME280;63320;50.768;6.724;2022-12-29T07:36:33;99064.91;;;10.48;68.08
74794;BME280;63320;50.768;6.724;2022-12-29T07:38:58;99057.72;;;10.37;68.57
74794;BME280;63320;50.768;6.724;2022-12-29T07:41:24;99073.78;;;10.32;69.11
74794;BME280;63320;50.768;6.724;2022-12-29T07:43:49;99063.56;;;10.28;69.34
74794;BME280;63320;50.768;6.724;2022-12-29T07:46:14;99065.19;;;10.43;68.41
74794;BME280;63320;50.768;6.724;2022-12-29T07:48:41;99098.22;;;10.47;68.08
74794;BME280;63320;50.768;6.724;2022-12-29T07:51:06;99077.31;;;10.46;67.92
74794;BME280;63320;50.768;6.724;2022-12-29T07:53:31;99072.69;;;10.49;67.95
74794;BME280;63320;50.768;6.724;2022-12-29T07:55:57;99071.75;;;10.50;67.64
74794;BME280;63320;50.768;6.724;2022-12-29T07:58:22;99077.09;;;10.49;67.44
74794;BME280;63320;50.768;6.724;2022-12-29T08:00:52;99082.34;;;10.49;67.63
74794;BME280;63320;50.768;6.724;2022-12-29T08:03:18;99082.25;;;10.50;67.33
74794;BME280;63320;50.768;6.724;2022-12-29T08:05:44;99096.03;;;10.54;67.26
74794;BME280;63320;50.768;6.724;2022-12-29T08:08:10;99084.66;;;10.53;66.99
74794;BME280;63320;50.768;6.724;2022-12-29T08:10:35;99083.94;;;10.51;67.49
74794;BME280;63320;50.768;6.724;2022-12-29T08:13:00;99087.94;;;10.57;67.06
74794;BME280;63320;50.768;6.724;2022-12-29T08:15:26;99089.19;;;10.51;67.47
74794;BME280;63320;50.768;6.724;2022-12-29T08:17:51;99108.69;;;10.61;66.74
74794;BME280;63320;50.768;6.724;2022-12-29T08:20:17;99100.97;;;10.58;66.91
74794;BME280;63320;50.768;6.724;2022-12-29T08:22:43;99099.19;;;10.46;67.59
74794;BME280;63320;50.768;6.724;2022-12-29T08:25:09;99112.84;;;10.51;67.07
74794;BME280;63320;50.768;6.724;2022-12-29T08:27:34;99094.38;;;10.66;65.92
74794;BME280;63320;50.768;6.724;2022-12-29T08:29:59;99099.19;;;10.59;66.11
74794;BME280;63320;50.768;6.724;2022-12-29T08:32:25;99109.97;;;10.42;67.21
74794;BME280;63320;50.768;6.724;2022-12-29T08:34:50;99101.66;;;10.35;67.28
74794;BME280;63320;50.768;6.724;2022-12-29T08:37:15;99124.44;;;10.61;64.93
74794;BME280;63320;50.768;6.724;2022-12-29T08:39:42;99108.50;;;10.65;64.79
74794;BME280;63320;50.768;6.724;2022-12-29T08:42:07;99102.34;;;10.64;64.26
74794;BME280;63320;50.768;6.724;2022-12-29T08:44:33;99102.22;;;10.53;64.42
74794;BME280;63320;50.768;6.724;2022-12-29T08:46:58;99118.94;;;10.52;64.71
74794;BME280;63320;50.768;6.724;2022-12-29T08:49:23;99122.66;;;10.62;63.48
74794;BME280;63320;50.768;6.724;2022-12-29T08:51:49;99114.84;;;10.48;64.82
74794;BME280;63320;50.768;6.724;2022-12-29T08:54:14;99141.41;;;10.43;64.53
74794;BME280;63320;50.768;6.724;2022-12-29T08:56:41;99135.59;;;10.38;64.73
74794;BME280;63320;50.768;6.724;2022-12-29T08:59:06;99173.31;;;10.51;63.25
74794;BME280;63320;50.768;6.724;2022-12-29T09:01:31;99149.00;;;10.48;62.81
74794;BME280;63320;50.768;6.724;2022-12-29T09:03:57;99128.19;;;10.45;63.06
74794;BME280;63320;50.768;6.724;2022-12-29T09:06:22;99171.22;;;10.29;63.80
74794;BME280;63320;50.768;6.724;2022-12-29T09:08:47;99144.44;;;10.37;62.50
74794;BME280;63320;50.768;6.724;2022-12-29T09:11:17;99163.13;;;10.32;62.75
74794;BME280;63320;50.768;6.724;2022-12-29T09:13:44;99175.41;;;10.32;63.22
74794;BME280;63320;50.768;6.724;2022-12-29T09:16:10;99159.84;;;10.29;63.50
74794;BME280;63320;50.768;6.724;2022-12-29T09:18:36;99164.47;;;10.25;63.84
74794;BME280;63320;50.768;6.724;2022-12-29T09:21:03;99189.94;;;10.37;62.71
74794;BME280;63320;50.768;6.724;2022-12-29T09:23:29;99170.16;;;10.32;62.93
74794;BME280;63320;50.768;6.724;2022-12-29T09:25:55;99163.22;;;10.31;62.73
74794;BME280;63320;50.768;6.724;2022-12-29T09:28:22;99182.84;;;10.40;62.04
74794;BME280;63320;50.768;6.724;2022-12-29T09:30:49;99173.53;;;10.34;62.37
74794;BME280;63320;50.768;6.724;2022-12-29T09:33:14;99190.88;;;10.51;60.98
74794;BME280;63320;50.768;6.724;2022-12-29T09:35:41;99185.59;;;10.51;60.40
74794;BME280;63320;50.768;6.724;2022-12-29T09:38:07;99176.78;;;10.52;60.76
74794;BME280;63320;50.768;6.724;2022-12-29T09:40:33;99176.13;;;10.48;60.96
74794;BME280;63320;50.768;6.724;2022-12-29T09:43:12;99197.97;;;10.49;60.95
74794;BME280;63320;50.768;6.724;2022-12-29T09:45:44;99191.13;;;10.60;59.82
74794;BME280;63320;50.768;6.724;2022-12-29T09:48:16;99238.31;;;10.62;59.16
74794;BME280;63320;50.768;6.724;2022-12-29T09:50:44;99180.19;;;10.67;58.42
74794;BME280;63320;50.768;6.724;2022-12-29T09:53:15;99186.69;;;10.61;59.10
74794;BME280;63320;50.768;6.724;2022-12-29T09:55:47;99160.94;;;10.66;58.10
74794;BME280;63320;50.768;6.724;2022-12-29T09:58:17;99197.34;;;10.72;57.96
74794;BME280;63320;50.768;6.724;2022-12-29T10:00:49;99215.66;;;10.74;58.48
74794;BME280;63320;50.768;6.724;2022-12-29T10:03:19;99200.81;;;10.73;59.13
74794;BME280;63320;50.768;6.724;2022-12-29T10:05:48;99183.19;;;10.75;58.94
74794;BME280;63320;50.768;6.724;2022-12-29T10:08:24;99187.50;;;10.88;57.94
74794;BME280;63320;50.768;6.724;2022-12-29T10:10:54;99176.56;;;10.82;58.95
74794;BME280;63320;50.768;6.724;2022-12-29T10:13:28;99181.81;;;10.82;59.39
74794;BME280;63320;50.768;6.724;2022-12-29T10:16:02;99179.63;;;10.88;59.38
74794;BME280;63320;50.768;6.724;2022-12-29T10:18:42;99208.34;;;10.92;58.96
74794;BME280;63320;50.768;6.724;2022-12-29T10:21:18;99197.84;;;10.92;59.49
74794;BME280;63320;50.768;6.724;2022-12-29T10:23:51;99178.59;;;10.91;60.05
74794;BME280;63320;50.768;6.724;2022-12-29T10:26:18;99176.59;;;10.95;60.14
74794;BME280;63320;50.768;6.724;2022-12-29T10:28:48;99201.41;;;10.91;60.79
74794;BME280;63320;50.768;6.724;2022-12-29T10:31:18;99214.69;;;11.02;59.08
74794;BME280;63320;50.768;6.724;2022-12-29T10:33:46;99189.03;;;11.05;58.99
74794;BME280;63320;50.768;6.724;2022-12-29T10:36:17;99213.34;;;11.09;59.28
74794;BME280;63320;50.768;6.724;2022-12-29T10:38:48;99235.88;;;11.13;59.51
74794;BME280;63320;50.768;6.724;2022-12-29T10:41:20;99200.16;;;10.96;60.51
74794;BME280;63320;50.768;6.724;2022-12-29T10:43:48;99211.66;;;10.95;60.58
74794;BME280;63320;50.768;6.724;2022-12-29T10:46:16;99207.34;;;11.07;59.79
74794;BME280;63320;50.768;6.724;2022-12-29T10:48:42;99211.47;;;11.11;59.18
74794;BME280;63320;50.768;6.724;2022-12-29T10:51:09;99225.03;;;11.05;58.57
74794;BME280;63320;50.768;6.724;2022-12-29T10:53:39;99193.22;;;10.95;58.91
74794;BME280;63320;50.768;6.724;2022-12-29T10:56:14;99223.41;;;10.89;58.98
74794;BME280;63320;50.768;6.724;2022-12-29T10:58:43;99216.66;;;10.85;59.13
74794;BME280;63320;50.768;6.724;2022-12-29T11:01:12;99205.31;;;10.98;58.33
74794;BME280;63320;50.768;6.724;2022-12-29T11:03:47;99217.53;;;10.99;58.51
74794;BME280;63320;50.768;6.724;2022-12-29T11:06:18;99201.53;;;11.02;58.11
74794;BME280;63320;50.768;6.724;2022-12-29T11:08:53;99195.44;;;11.01;57.38
74794;BME280;63320;50.768;6.724;2022-12-29T11:11:24;99197.13;;;11.02;57.33
74794;BME280;63320;50.768;6.724;2022-12-29T11:13:54;99236.69;;;11.01;57.85
74794;BME280;63320;50.768;6.724;2022-12-29T11:16:27;99215.84;;;10.98;58.19
74794;BME280;63320;50.768;6.724;2022-12-29T11:18:53;99208.06;;;10.96;58.71
74794;BME280;63320;50.768;6.724;2022-12-29T11:21:27;99219.84;;;10.91;59.19
74794;BME280;63320;50.768;6.724;2022-12-29T11:23:55;99254.56;;;10.96;59.03
74794;BME280;63320;50.768;6.724;2022-12-29T11:26:22;99216.06;;;10.95;59.73
74794;BME280;63320;50.768;6.724;2022-12-29T11:29:08;99228.59;;;11.04;59.56
74794;BME280;63320;50.768;6.724;2022-12-29T11:31:40;99232.38;;;11.00;59.55
74794;BME280;63320;50.768;6.724;2022-12-29T11:34:06;99225.63;;;10.96;59.89
74794;BME280;63320;50.768;6.724;2022-12-29T11:36:34;99305.69;;;10.92;60.00
74794;BME280;63320;50.768;6.724;2022-12-29T11:39:01;99288.66;;;10.97;59.63
74794;BME280;63320;50.768;6.724;2022-12-29T11:41:29;99256.91;;;11.00;59.77
74794;BME280;63320;50.768;6.724;2022-12-29T11:43:56;99257.34;;;11.07;58.81
74794;BME280;63320;50.768;6.724;2022-12-29T11:46:27;99266.50;;;11.14;58.01
74794;BME280;63320;50.768;6.724;2022-12-29T11:48:53;99233.91;;;11.29;57.44
74794;BME280;63320;50.768;6.724;2022-12-29T11:51:23;99253.09;;;11.31;58.02
74794;BME280;63320;50.768;6.724;2022-12-29T11:53:54;99249.06;;;11.26;57.87
74794;BME280;63320;50.768;6.724;2022-12-29T11:56:33;99229.81;;;11.25;58.33
74794;BME280;63320;50.768;6.724;2022-12-29T12:01:54;99251.88;;;11.10;58.42
74794;BME280;63320;50.768;6.724;2022-12-29T12:04:23;99260.81;;;11.07;59.37
74794;BME280;63320;50.768;6.724;2022-12-29T12:06:58;99247.22;;;11.01;59.00
74794;BME280;63320;50.768;6.724;2022-12-29T12:09:29;99255.50;;;10.95;59.27
74794;BME280;63320;50.768;6.724;2022-12-29T12:11:57;99257.78;;;10.86;60.16
74794;BME280;63320;50.768;6.724;2022-12-29T12:14:27;99269.25;;;10.85;60.19
74794;BME280;63320;50.768;6.724;2022-12-29T12:16:58;99263.78;;;10.88;60.00
74794;BME280;63320;50.768;6.724;2022-12-29T12:19:31;99263.16;;;10.85;60.36
74794;BME280;63320;50.768;6.724;2022-12-29T12:22:02;99261.56;;;10.82;60.28
74794;BME280;63320;50.768;6.724;2022-12-29T12:24:38;99269.66;;;10.79;60.65
74794;BME280;63320;50.768;6.724;2022-12-29T12:27:13;99267.94;;;10.78;60.21
74794;BME280;63320;50.768;6.724;2022-12-29T12:29:44;99262.69;;;10.78;60.32
74794;BME280;63320;50.768;6.724;2022-12-29T12:32:15;99270.38;;;10.81;59.45
74794;BME280;63320;50.768;6.724;2022-12-29T12:34:43;99290.69;;;10.79;60.01
74794;BME280;63320;50.768;6.724;2022-12-29T12:37:33;99283.66;;;10.80;59.63
74794;BME280;63320;50.768;6.724;2022-12-29T12:40:30;99280.25;;;10.78;60.05
74794;BME280;63320;50.768;6.724;2022-12-29T12:43:11;99273.13;;;10.80;59.44
74794;BME280;63320;50.768;6.724;2022-12-29T12:45:50;99278.88;;;10.72;60.32
74794;BME280;63320;50.768;6.724;2022-12-29T12:48:33;99273.22;;;10.64;60.85
74794;BME280;63320;50.768;6.724;2022-12-29T12:51:13;99276.63;;;10.66;60.54
74794;BME280;63320;50.768;6.724;2022-12-29T12:53:49;99244.88;;;10.69;60.22
74794;BME280;63320;50.768;6.724;2022-12-29T12:56:39;99267.78;;;10.67;60.39
74794;BME280;63320;50.768;6.724;2022-12-29T12:59:15;99275.03;;;10.63;60.49
74794;BME280;63320;50.768;6.724;2022-12-29T13:01:52;99300.06;;;10.69;59.84
74794;BME280;63320;50.768;6.724;2022-12-29T13:04:38;99281.78;;;10.68;60.26
74794;BME280;63320;50.768;6.724;2022-12-29T13:07:14;99287.16;;;10.66;60.56
74794;BME280;63320;50.768;6.724;2022-12-29T13:09:54;99288.16;;;10.63;61.18
74794;BME280;63320;50.768;6.724;2022-12-29T13:12:31;99314.66;;;10.75;60.12
74794;BME280;63320;50.768;6.724;2022-12-29T13:15:08;99297.72;;;10.79;58.60